createdAt,value
2019-03-04T00:00:42.142Z,8.00
2019-03-04T00:03:09.575Z,7.43
2019-03-04T00:05:36.977Z,6.20
2019-03-04T00:08:04.402Z,6.40
2019-03-04T00:10:31.817Z,6.53
2019-03-04T00:12:59.254Z,6.57
2019-03-04T00:15:26.677Z,5.20
2019-03-04T00:17:54.083Z,3.80
2019-03-04T00:20:21.520Z,6.17
2019-03-04T00:22:48.929Z,6.20
2019-03-04T00:25:16.407Z,5.80
2019-03-04T00:27:43.828Z,4.90
2019-03-04T00:30:11.227Z,6.40
2019-03-04T00:32:38.651Z,4.97
2019-03-04T00:35:06.135Z,4.17
2019-03-04T00:37:33.577Z,6.37
2019-03-04T00:40:00.975Z,4.70
2019-03-04T00:42:28.387Z,3.63
2019-03-04T00:44:55.847Z,2.73
2019-03-04T00:47:23.248Z,3.60
2019-03-04T00:49:50.679Z,5.43
2019-03-04T00:52:18.104Z,3.70
2019-03-04T00:54:45.532Z,5.10
2019-03-04T00:57:12.922Z,3.50
2019-03-04T00:59:40.352Z,4.10
2019-03-04T01:02:07.760Z,3.13
2019-03-04T01:04:35.191Z,4.40
2019-03-04T01:07:02.606Z,3.10
2019-03-04T01:09:30.041Z,3.57
2019-03-04T01:11:57.446Z,6.00
2019-03-04T01:14:24.876Z,3.57
2019-03-04T01:16:52.294Z,6.03
2019-03-04T01:19:19.687Z,5.27
2019-03-04T01:21:47.127Z,3.83
2019-03-04T01:24:14.544Z,3.27
2019-03-04T01:26:41.975Z,2.90
2019-03-04T01:29:09.380Z,2.30
2019-03-04T01:31:36.797Z,5.77
2019-03-04T01:34:04.201Z,4.03
2019-03-04T01:36:31.623Z,2.77
2019-03-04T01:38:59.025Z,2.83
2019-03-04T01:41:26.455Z,2.17
2019-03-04T01:43:53.858Z,4.40
2019-03-04T01:46:21.289Z,3.00
2019-03-04T01:48:48.695Z,2.47
2019-03-04T01:51:16.135Z,1.80
2019-03-04T01:53:43.543Z,2.63
2019-03-04T01:56:10.957Z,2.47
2019-03-04T01:58:38.347Z,2.03
2019-03-04T02:01:05.758Z,1.77
2019-03-04T02:03:33.182Z,1.57
2019-03-04T02:06:00.575Z,2.13
2019-03-04T02:08:27.970Z,1.80
2019-03-04T02:10:55.392Z,1.47
2019-03-04T02:13:22.816Z,2.80
2019-03-04T02:15:50.200Z,1.87
2019-03-04T02:18:17.629Z,2.40
2019-03-04T02:20:45.051Z,1.97
2019-03-04T02:23:12.474Z,2.67
2019-03-04T02:25:39.890Z,4.50
2019-03-04T02:28:07.314Z,3.87
2019-03-04T02:30:34.749Z,3.97
2019-03-04T02:33:02.278Z,3.97
2019-03-04T02:35:29.596Z,3.63
2019-03-04T02:37:57.029Z,6.70
2019-03-04T02:40:24.419Z,3.70
2019-03-04T02:42:51.839Z,3.43
2019-03-04T02:45:19.263Z,3.73
2019-03-04T02:47:46.662Z,3.40
2019-03-04T02:50:14.100Z,5.17
2019-03-04T02:52:41.501Z,3.13
2019-03-04T02:55:08.932Z,3.00
2019-03-04T02:57:36.342Z,4.27
2019-03-04T03:00:03.746Z,2.73
2019-03-04T03:02:31.177Z,3.07
2019-03-04T03:04:58.595Z,3.00
2019-03-04T03:07:26.034Z,2.93
2019-03-04T03:09:53.460Z,3.43
2019-03-04T03:12:20.867Z,2.47
2019-03-04T03:14:48.316Z,4.17
2019-03-04T03:17:15.712Z,3.07
2019-03-04T03:19:43.141Z,4.20
2019-03-04T03:22:10.557Z,2.70
2019-03-04T03:24:37.984Z,2.70
2019-03-04T03:27:05.418Z,2.63
2019-03-04T03:29:32.829Z,3.13
2019-03-04T03:32:00.274Z,3.33
2019-03-04T03:34:27.670Z,4.00
2019-03-04T03:36:55.077Z,3.23
2019-03-04T03:39:22.512Z,2.20
2019-03-04T03:41:49.921Z,2.83
2019-03-04T03:44:17.359Z,2.50
2019-03-04T03:46:44.792Z,2.87
2019-03-04T03:49:12.227Z,4.00
2019-03-04T03:51:39.662Z,2.20
2019-03-04T03:54:07.087Z,1.87
2019-03-04T03:56:34.526Z,2.23
2019-03-04T03:59:01.916Z,2.07
2019-03-04T04:01:29.352Z,2.50
2019-03-04T04:03:56.775Z,2.20
2019-03-04T04:06:24.205Z,2.97
2019-03-04T04:08:51.654Z,2.70
2019-03-04T04:11:19.055Z,3.40
2019-03-04T04:13:46.498Z,5.07
2019-03-04T04:16:13.911Z,2.57
2019-03-04T04:18:41.345Z,2.23
2019-03-04T04:21:08.738Z,4.43
2019-03-04T04:23:36.219Z,1.97
2019-03-04T04:26:03.626Z,1.57
2019-03-04T04:28:31.035Z,2.30
2019-03-04T04:30:58.479Z,3.77
2019-03-04T04:33:25.884Z,1.53
2019-03-04T04:35:53.305Z,2.23
2019-03-04T04:38:20.708Z,1.60
2019-03-04T04:40:48.151Z,3.60
2019-03-04T04:43:15.556Z,2.43
2019-03-04T04:45:42.990Z,2.70
2019-03-04T04:48:10.404Z,8.27
2019-03-04T04:50:37.803Z,1.93
2019-03-04T04:53:05.223Z,2.47
2019-03-04T04:55:32.613Z,2.33
2019-03-04T04:58:00.030Z,2.50
2019-03-04T05:00:27.449Z,3.07
2019-03-04T05:02:54.869Z,1.23
2019-03-04T05:05:22.269Z,1.60
2019-03-04T05:07:49.697Z,0.87
2019-03-04T05:10:19.936Z,2.20
2019-03-04T05:12:47.353Z,1.67
2019-03-04T05:15:14.755Z,1.13
2019-03-04T05:17:42.202Z,0.93
2019-03-04T05:20:09.612Z,1.17
2019-03-04T05:22:37.027Z,2.23
2019-03-04T05:25:04.473Z,1.40
2019-03-04T05:27:31.880Z,1.50
2019-03-04T05:29:59.319Z,6.97
2019-03-04T05:32:26.723Z,1.70
2019-03-04T05:34:54.170Z,1.77
2019-03-04T05:37:21.551Z,1.67
2019-03-04T05:39:48.989Z,1.17
2019-03-04T05:42:16.397Z,3.87
2019-03-04T05:44:43.827Z,2.23
2019-03-04T05:47:11.237Z,2.47
2019-03-04T05:49:38.652Z,1.67
2019-03-04T05:52:06.046Z,2.73
2019-03-04T05:54:33.478Z,3.47
2019-03-04T05:57:00.886Z,4.37
2019-03-04T05:59:28.321Z,5.37
2019-03-04T06:01:55.769Z,1.83
2019-03-04T06:04:23.169Z,3.43
2019-03-04T06:06:56.621Z,3.20
2019-03-04T06:09:24.012Z,3.80
2019-03-04T06:11:51.436Z,2.60
2019-03-04T06:14:18.841Z,3.50
2019-03-04T06:16:47.531Z,3.90
2019-03-04T06:19:13.669Z,3.93
2019-03-04T06:21:41.095Z,4.87
2019-03-04T06:24:08.507Z,5.93
2019-03-04T06:26:35.934Z,6.30
2019-03-04T06:29:03.334Z,3.37
2019-03-04T06:31:30.752Z,5.40
2019-03-04T06:33:58.163Z,3.73
2019-03-04T06:36:25.590Z,3.87
2019-03-04T06:38:52.988Z,4.13
2019-03-04T06:41:20.445Z,7.07
2019-03-04T06:43:47.854Z,5.53
2019-03-04T06:46:15.281Z,4.37
2019-03-04T06:48:42.710Z,3.13
2019-03-04T06:51:31.125Z,8.83
2019-03-04T06:54:01.331Z,4.20
2019-03-04T06:56:40.456Z,6.17
2019-03-04T06:59:26.265Z,6.57
2019-03-04T07:02:11.446Z,8.33
2019-03-04T07:04:59.339Z,3.50
2019-03-04T07:07:25.020Z,4.30
2019-03-04T07:09:52.476Z,5.37
2019-03-04T07:12:19.936Z,6.23
2019-03-04T07:14:47.310Z,7.27
2019-03-04T07:17:14.870Z,10.20
2019-03-04T07:19:42.270Z,10.10
2019-03-04T07:22:11.115Z,7.17
2019-03-04T07:24:37.146Z,6.63
2019-03-04T07:27:04.582Z,7.17
2019-03-04T07:29:32.024Z,7.97
2019-03-04T07:31:59.608Z,7.47
2019-03-04T07:34:27.047Z,7.47
2019-03-04T07:36:54.466Z,6.57
2019-03-04T07:39:21.953Z,4.93
2019-03-04T07:41:49.362Z,4.57
2019-03-04T07:44:16.790Z,4.30
2019-03-04T07:46:44.247Z,6.17
2019-03-04T07:49:11.694Z,7.70
2019-03-04T07:51:39.097Z,5.97
2019-03-04T07:54:06.509Z,7.47
2019-03-04T07:56:33.969Z,7.90
2019-03-04T07:59:01.356Z,9.23
2019-03-04T08:01:28.806Z,10.27
2019-03-04T08:03:56.215Z,13.80
2019-03-04T08:06:23.611Z,9.03
2019-03-04T08:09:06.097Z,10.60
2019-03-04T08:11:33.489Z,5.50
2019-03-04T08:14:00.888Z,5.97
2019-03-04T08:16:28.327Z,7.20
2019-03-04T08:18:55.748Z,17.53
2019-03-04T08:21:23.181Z,12.73
2019-03-04T08:23:50.647Z,15.20
2019-03-04T08:26:18.050Z,11.63
2019-03-04T08:28:45.484Z,9.63
2019-03-04T08:31:13.055Z,11.33
2019-03-04T08:33:40.471Z,12.63
2019-03-04T08:36:07.916Z,11.57
2019-03-04T08:38:35.335Z,14.17
2019-03-04T08:41:02.783Z,9.70
2019-03-04T08:43:30.199Z,10.53
2019-03-04T08:45:57.628Z,8.80
2019-03-04T08:48:25.042Z,6.77
2019-03-04T08:50:52.499Z,9.70
2019-03-04T08:53:19.893Z,9.17
2019-03-04T08:55:47.336Z,12.00
2019-03-04T08:58:14.735Z,12.97
2019-03-04T09:00:42.175Z,11.27
2019-03-04T09:03:09.593Z,12.97
2019-03-04T09:05:37.026Z,5.87
2019-03-04T09:08:04.448Z,11.77
2019-03-04T09:10:31.889Z,13.53
2019-03-04T09:12:59.338Z,14.43
2019-03-04T09:15:26.752Z,13.27
2019-03-04T09:17:54.219Z,10.70
2019-03-04T09:20:24.626Z,11.67
2019-03-04T09:22:52.045Z,10.73
2019-03-04T09:25:30.010Z,11.97
2019-03-04T09:27:49.618Z,10.13
2019-03-04T09:30:17.042Z,6.47
2019-03-04T09:32:44.475Z,12.70
2019-03-04T09:35:14.662Z,9.67
2019-03-04T09:37:42.081Z,20.57
2019-03-04T09:40:18.019Z,6.07
2019-03-04T09:42:45.429Z,4.40
2019-03-04T09:45:12.856Z,2.47
2019-03-04T09:47:40.273Z,2.93
2019-03-04T09:50:13.039Z,3.20
2019-03-04T09:52:40.476Z,3.00
2019-03-04T09:55:07.878Z,1.83
2019-03-04T09:57:35.313Z,1.30
2019-03-04T10:00:02.715Z,1.80
2019-03-04T10:02:30.145Z,4.23
2019-03-04T10:05:03.166Z,2.77
2019-03-04T10:07:48.817Z,1.53
2019-03-04T10:10:19.071Z,2.93
2019-03-04T10:13:01.430Z,1.53
2019-03-04T10:15:37.697Z,3.60
2019-03-04T10:18:23.415Z,2.97
2019-03-04T10:21:06.093Z,3.43
2019-03-04T10:23:42.255Z,5.97
2019-03-04T10:26:21.890Z,2.03
2019-03-04T10:29:04.441Z,4.27
2019-03-04T10:31:50.181Z,2.80
2019-03-04T10:34:20.529Z,3.07
2019-03-04T10:37:00.156Z,3.07
2019-03-04T10:39:49.078Z,1.40
2019-03-04T10:42:22.217Z,2.97
2019-03-04T10:44:55.355Z,2.13
2019-03-04T10:47:22.775Z,3.60
2019-03-04T10:49:50.220Z,6.60
2019-03-04T10:52:17.633Z,6.07
2019-03-04T10:54:45.057Z,3.27
2019-03-04T10:57:12.476Z,2.63
2019-03-04T10:59:39.917Z,3.27
2019-03-04T11:02:07.346Z,2.50
2019-03-04T11:04:34.778Z,3.27
2019-03-04T11:07:02.202Z,5.37
2019-03-04T11:09:29.606Z,5.43
2019-03-04T11:11:57.043Z,4.63
2019-03-04T11:14:24.475Z,4.57
2019-03-04T11:16:51.925Z,5.70
2019-03-04T11:19:19.340Z,5.23
2019-03-04T11:21:46.772Z,4.30
2019-03-04T11:24:14.192Z,4.30
2019-03-04T11:26:41.656Z,8.37
2019-03-04T11:29:09.045Z,4.57
2019-03-04T11:31:36.487Z,3.20
2019-03-04T11:34:03.895Z,4.77
2019-03-04T11:36:31.322Z,8.00
2019-03-04T11:38:58.797Z,4.63
2019-03-04T11:41:26.178Z,2.80
2019-03-04T11:43:53.606Z,5.97
2019-03-04T11:46:21.064Z,4.30
2019-03-04T11:48:48.439Z,7.60
2019-03-04T11:51:15.879Z,9.93
2019-03-04T11:53:43.292Z,5.63
2019-03-04T11:56:10.787Z,6.37
2019-03-04T11:58:38.203Z,5.20
2019-03-04T12:01:11.593Z,4.83
2019-03-04T12:03:39.067Z,6.20
2019-03-04T12:06:06.523Z,7.37
2019-03-04T12:08:33.950Z,7.40
2019-03-04T12:11:01.393Z,5.60
2019-03-04T12:13:28.829Z,4.53
2019-03-04T12:15:56.271Z,9.23
2019-03-04T12:18:23.688Z,6.13
2019-03-04T12:20:51.094Z,8.33
2019-03-04T12:23:18.523Z,6.10
2019-03-04T12:25:45.943Z,4.87
2019-03-04T12:28:13.376Z,5.63
2019-03-04T12:30:40.788Z,10.47
2019-03-04T12:33:08.263Z,10.03
2019-03-04T12:35:35.673Z,11.40
2019-03-04T12:38:03.095Z,7.07
2019-03-04T12:40:30.515Z,6.73
2019-03-04T12:42:57.975Z,10.73
2019-03-04T12:45:33.915Z,9.33
2019-03-04T12:47:52.834Z,6.93
2019-03-04T12:50:22.966Z,5.83
2019-03-04T12:52:50.457Z,8.57
2019-03-04T12:55:17.852Z,3.33
2019-03-04T12:57:45.303Z,7.20
2019-03-04T13:00:12.872Z,4.70
2019-03-04T13:02:40.276Z,6.23
2019-03-04T13:05:07.684Z,4.67
2019-03-04T13:07:35.153Z,7.27
2019-03-04T13:10:02.613Z,6.73
2019-03-04T13:12:30.020Z,4.10
2019-03-04T13:14:57.459Z,6.80
2019-03-04T13:17:24.855Z,6.63
2019-03-04T13:19:52.306Z,6.57
2019-03-04T13:22:19.718Z,5.13
2019-03-04T13:24:47.142Z,8.27
2019-03-04T13:27:23.346Z,5.43
2019-03-04T13:29:41.987Z,3.63
2019-03-04T13:32:09.390Z,7.03
2019-03-04T13:34:36.820Z,6.67
2019-03-04T13:37:04.268Z,5.37
2019-03-04T13:39:31.684Z,5.90
2019-03-04T13:41:59.128Z,3.87
2019-03-04T13:44:26.530Z,5.13
2019-03-04T13:46:53.963Z,6.60
2019-03-04T13:49:21.399Z,8.03
2019-03-04T13:51:48.851Z,3.57
2019-03-04T13:54:16.252Z,5.03
2019-03-04T13:56:43.700Z,3.00
2019-03-04T13:59:11.096Z,5.27
2019-03-04T14:01:38.538Z,6.10
2019-03-04T14:04:05.968Z,4.53
2019-03-04T14:06:33.383Z,3.93
2019-03-04T14:09:00.842Z,3.93
2019-03-04T14:11:28.312Z,3.67
2019-03-04T14:13:55.747Z,3.10
2019-03-04T14:16:23.151Z,2.37
2019-03-04T14:18:50.591Z,4.10
2019-03-04T14:21:18.057Z,11.40
2019-03-04T14:23:45.499Z,2.13
2019-03-04T14:26:12.923Z,2.77
2019-03-04T14:28:40.373Z,3.23
2019-03-04T14:31:07.777Z,10.63
2019-03-04T14:33:35.217Z,2.37
2019-03-04T14:36:02.632Z,8.30
2019-03-04T14:38:30.114Z,5.53
2019-03-04T14:40:57.542Z,9.00
2019-03-04T14:43:24.981Z,5.33
2019-03-04T14:45:54.298Z,5.20
2019-03-04T14:48:19.892Z,4.23
2019-03-04T14:50:47.380Z,5.60
2019-03-04T14:53:14.809Z,3.70
2019-03-04T14:55:42.342Z,5.93
2019-03-04T14:58:09.756Z,5.10
2019-03-04T15:00:37.170Z,3.97
2019-03-04T15:03:04.587Z,3.50
2019-03-04T15:05:32.031Z,4.13
2019-03-04T15:07:59.426Z,5.33
2019-03-04T15:10:26.844Z,3.23
2019-03-04T15:12:54.278Z,2.50
2019-03-04T15:15:21.770Z,2.97
2019-03-04T15:17:49.201Z,2.27
2019-03-04T15:20:16.612Z,4.13
2019-03-04T15:22:44.045Z,3.70
2019-03-04T15:25:11.473Z,5.47
2019-03-04T15:27:38.896Z,5.60
2019-03-04T15:30:06.333Z,5.27
2019-03-04T15:32:33.781Z,5.00
2019-03-04T15:35:01.231Z,8.20
2019-03-04T15:37:28.632Z,7.87
2019-03-04T15:39:56.078Z,3.93
2019-03-04T15:42:23.501Z,5.83
2019-03-04T15:44:50.900Z,8.57
2019-03-04T15:47:18.368Z,5.77
2019-03-04T15:49:45.803Z,8.97
2019-03-04T15:52:13.227Z,7.50
2019-03-04T15:54:40.739Z,6.83
2019-03-04T15:57:08.213Z,5.43
2019-03-04T15:59:35.671Z,5.23
2019-03-04T16:02:03.119Z,8.20
2019-03-04T16:04:30.529Z,8.33
2019-03-04T16:06:58.003Z,5.77
2019-03-04T16:09:26.842Z,6.67
2019-03-04T16:11:54.274Z,7.57
2019-03-04T16:14:21.676Z,11.13
2019-03-04T16:16:49.114Z,6.40
2019-03-04T16:19:16.538Z,8.63
2019-03-04T16:21:43.957Z,4.83
2019-03-04T16:24:11.402Z,7.53
2019-03-04T16:26:38.835Z,6.63
2019-03-04T16:29:06.364Z,9.00
2019-03-04T16:31:33.861Z,5.97
2019-03-04T16:34:01.403Z,6.73
2019-03-04T16:36:28.908Z,9.73
2019-03-04T16:38:56.312Z,8.90
2019-03-04T16:41:23.760Z,11.50
2019-03-04T16:43:51.261Z,9.30
2019-03-04T16:46:18.682Z,6.30
2019-03-04T16:48:46.111Z,11.07
2019-03-04T16:51:13.565Z,9.43
2019-03-04T16:53:41.017Z,5.87
2019-03-04T16:56:08.499Z,3.93
2019-03-04T16:58:35.933Z,11.93
2019-03-04T17:01:03.344Z,9.30
2019-03-04T17:03:30.787Z,9.33
2019-03-04T17:05:58.241Z,7.00
2019-03-04T17:08:25.649Z,7.97
2019-03-04T17:10:53.062Z,12.67
2019-03-04T17:13:20.519Z,9.83
2019-03-04T17:15:47.955Z,7.33
2019-03-04T17:18:17.448Z,8.60
2019-03-04T17:20:42.832Z,11.70
2019-03-04T17:23:10.260Z,5.93
2019-03-04T17:25:37.661Z,6.37
2019-03-04T17:28:06.568Z,7.90
2019-03-04T17:30:34.070Z,7.90
2019-03-04T17:33:01.479Z,14.47
2019-03-04T17:35:28.975Z,9.27
2019-03-04T17:37:56.435Z,10.30
2019-03-04T17:40:23.859Z,13.13
2019-03-04T17:42:51.294Z,10.73
2019-03-04T17:45:21.244Z,10.63
2019-03-04T17:47:48.806Z,12.83
2019-03-04T17:50:18.910Z,5.87
2019-03-04T17:52:46.315Z,10.63
2019-03-04T17:55:13.758Z,9.10
2019-03-04T17:57:41.224Z,8.60
2019-03-04T18:00:08.653Z,10.90
2019-03-04T18:02:36.087Z,11.30
2019-03-04T18:05:03.601Z,10.70
2019-03-04T18:07:31.047Z,9.40
2019-03-04T18:09:58.473Z,7.47
2019-03-04T18:12:25.896Z,8.37
2019-03-04T18:14:53.299Z,10.97
2019-03-04T18:17:20.734Z,7.70
2019-03-04T18:19:48.135Z,8.53
2019-03-04T18:22:15.562Z,11.93
2019-03-04T18:24:42.964Z,9.23
2019-03-04T18:27:10.395Z,10.07
2019-03-04T18:29:40.735Z,9.73
2019-03-04T18:32:29.434Z,7.93
2019-03-04T18:35:05.564Z,10.20
2019-03-04T18:37:45.094Z,14.50
2019-03-04T18:40:21.045Z,10.80
2019-03-04T18:43:03.153Z,9.83
2019-03-04T18:45:33.134Z,5.77
2019-03-04T18:48:08.860Z,6.20
2019-03-04T18:50:36.251Z,4.70
2019-03-04T18:53:03.680Z,8.10
2019-03-04T18:55:31.084Z,6.43
2019-03-04T18:57:58.493Z,7.77
2019-03-04T19:00:25.926Z,6.30
2019-03-04T19:02:53.325Z,5.97
2019-03-04T19:05:20.784Z,4.03
2019-03-04T19:07:48.166Z,2.70
2019-03-04T19:10:15.602Z,1.50
2019-03-04T19:12:43.043Z,3.47
2019-03-04T19:15:10.453Z,4.30
2019-03-04T19:17:37.887Z,1.80
2019-03-04T19:20:14.086Z,2.70
2019-03-04T19:22:41.540Z,2.17
2019-03-04T19:25:08.934Z,3.67
2019-03-04T19:27:36.366Z,1.73
2019-03-04T19:30:03.785Z,3.17
2019-03-04T19:32:31.211Z,5.50
2019-03-04T19:34:58.614Z,3.93
2019-03-04T19:37:26.048Z,2.70
2019-03-04T19:39:53.442Z,4.30
2019-03-04T19:42:20.870Z,4.03
2019-03-04T19:44:48.302Z,4.23
2019-03-04T19:47:15.697Z,5.10
2019-03-04T19:49:43.137Z,5.13
2019-03-04T19:52:10.538Z,3.40
2019-03-04T19:54:37.958Z,2.93
2019-03-04T19:57:05.421Z,5.30
2019-03-04T19:59:32.862Z,4.00
2019-03-04T20:02:02.094Z,4.40
2019-03-04T20:04:27.715Z,6.20
2019-03-04T20:06:55.177Z,6.43
2019-03-04T20:09:22.603Z,2.30
2019-03-04T20:11:50.016Z,5.43
2019-03-04T20:14:17.449Z,7.97
2019-03-04T20:16:44.863Z,5.20
2019-03-04T20:19:12.297Z,5.07
2019-03-04T20:21:39.728Z,10.27
2019-03-04T20:24:07.181Z,4.93
2019-03-04T20:26:34.604Z,5.80
2019-03-04T20:29:02.023Z,10.10
2019-03-04T20:31:29.448Z,7.97
2019-03-04T20:33:56.873Z,7.10
2019-03-04T20:36:25.834Z,7.40
2019-03-04T20:38:51.737Z,9.33
2019-03-04T20:41:19.189Z,5.33
2019-03-04T20:43:46.596Z,11.47
2019-03-04T20:46:14.040Z,12.23
2019-03-04T20:48:41.465Z,8.40
2019-03-04T20:51:08.902Z,6.77
2019-03-04T20:53:36.311Z,9.13
2019-03-04T20:56:03.754Z,7.17
2019-03-04T20:58:31.162Z,13.97
2019-03-04T21:00:58.606Z,13.40
2019-03-04T21:03:34.529Z,9.53
2019-03-04T21:05:53.449Z,6.50
2019-03-04T21:08:20.855Z,12.03
2019-03-04T21:10:48.301Z,11.63
2019-03-04T21:13:21.724Z,11.30
2019-03-04T21:15:49.127Z,11.43
2019-03-04T21:18:16.558Z,11.13
2019-03-04T21:20:43.984Z,9.80
2019-03-04T21:23:11.541Z,11.93
2019-03-04T21:25:50.678Z,14.73
2019-03-04T21:28:20.770Z,11.70
2019-03-04T21:30:57.224Z,13.63
2019-03-04T21:33:51.479Z,9.60
2019-03-04T21:36:55.452Z,8.20
2019-03-04T21:39:41.443Z,13.97
2019-03-04T21:42:14.535Z,13.10
2019-03-04T21:44:44.406Z,10.87
2019-03-04T21:47:14.331Z,12.07
2019-03-04T21:49:41.739Z,14.60
2019-03-04T21:52:19.467Z,20.70
2019-03-04T21:54:36.587Z,13.90
2019-03-04T21:57:15.458Z,8.23
2019-03-04T21:59:42.889Z,11.73
2019-03-04T22:02:19.184Z,9.83
2019-03-04T22:04:46.616Z,16.03
2019-03-04T22:07:14.065Z,14.10
2019-03-04T22:09:41.479Z,15.50
2019-03-04T22:12:11.947Z,13.73
2019-03-04T22:14:39.383Z,11.93
2019-03-04T22:17:06.781Z,13.83
2019-03-04T22:19:34.220Z,15.83
2019-03-04T22:22:01.642Z,11.70
2019-03-04T22:24:29.100Z,11.23
2019-03-04T22:26:56.491Z,13.03
2019-03-04T22:29:23.898Z,10.67
2019-03-04T22:31:51.341Z,7.77
2019-03-04T22:34:18.821Z,12.77
2019-03-04T22:36:46.263Z,12.27
2019-03-04T22:39:13.690Z,10.30
2019-03-04T22:41:41.113Z,6.50
2019-03-04T22:44:08.511Z,14.03
2019-03-04T22:46:35.946Z,9.80
2019-03-04T22:49:03.365Z,16.67
2019-03-04T22:51:30.812Z,16.30
2019-03-04T22:53:58.230Z,12.40
2019-03-04T22:56:25.607Z,10.80
2019-03-04T22:58:53.045Z,11.23
2019-03-04T23:01:32.522Z,11.73
2019-03-04T23:04:05.634Z,8.03
2019-03-04T23:06:54.239Z,10.57
2019-03-04T23:09:21.671Z,5.10
2019-03-04T23:11:57.930Z,8.37
2019-03-04T23:14:28.156Z,6.90
2019-03-04T23:16:55.577Z,7.10
2019-03-04T23:19:23.014Z,5.03
2019-03-04T23:21:50.398Z,4.50
2019-03-04T23:24:17.867Z,5.93
2019-03-04T23:26:45.243Z,5.80
2019-03-04T23:29:12.671Z,4.17
2019-03-04T23:31:40.081Z,3.83
2019-03-04T23:34:07.491Z,4.13
2019-03-04T23:36:35.101Z,3.33
2019-03-04T23:39:02.499Z,4.47
2019-03-04T23:41:29.937Z,2.47
2019-03-04T23:43:57.328Z,1.27
2019-03-04T23:46:24.773Z,2.23
2019-03-04T23:48:52.191Z,2.73
2019-03-04T23:51:19.613Z,1.47
2019-03-04T23:53:47.023Z,3.83
2019-03-04T23:56:14.478Z,4.97
2019-03-04T23:58:41.886Z,4.60
